Accueil
METAR-TAF:

METAR-TAF

Aéroports :

Wittering, Angleterre

latitude: 52-37N, longitude: 000-28W, altitude: 84 m

Observation

Le bulletin a été fait il y a 44 minutes, à 23:50 UTC
Vent 8 kt de est/nord-est
Température 0°C
Humidité 86%
Pression 1021 hPa
Visibilité 10 km ou plus

METAR: EGXT 232350Z AUTO 07008KT 9999 OVC025/// 00/M02 Q1021

Heure: 00:34 (00:34 UTC)

Prévision

Le bulletin a été fait il y a 10 heures et 52 minutes, à 13:42 UTC
Prévision valable du 23 à 15 UTC au 23 à 18 UTC
Vent 9 kt de est
Visibilité 10 km ou plus
Nuages fragmentés à une hauteur de 2500 ft

TAF: EGXT 231342Z 2315/2318 09009KT 9999 BKN025

Observations et prévisions météorologiques de plus de 4000 aéroports (messages METAR et TAF).

Les stations disponibles sont représentées par des disques jaunes et rouges sur la carte.

Passer la souris dessus pour voir le nom de la station.

Cliquer dessus pour voir les observations et prévisions météorologiques.

Pour changer de carte: cliquez sur les boutons verts avec une croix noire pour zoomer, sur le bouton vert avec un tiret pour effectuer un zoom arrière, ou sur les flèches vertes pour les cartes adjacentes.


METAR-TAF: